Boddam, United Kingdom
Current Conditions -  °F | °C
As of 7:20 PM on Friday 28 Nov 2014 (Local Time) from EGPD Reporting Station
Drizzle Drizzle  
Wind Chill: 44°   Ceiling: 400
Heat Index: 48°   Visibility: 1.8mi
Dew Point: 48°   Wind: 9mph
Humidity: 100%   Direction: 120°ESE
Pressure: 29.91"   Gusts: NA
Location:  57.47°N, 1.78°W
Report Text: EGPD 281920Z 12008KT 3000 DZ SCT002 BKN004 09/09 Q1013 TEMPO BKN006
Loading
Personal Weather Stations






























Interactive Weather Map New forecast layout! Learn more

10-Day Weather Forecast

Advertisements
Track Severe Weather on mobile